Terminal Aerodrome Forecast
Issued by NWS

Home | Current Version | Previous Version | Text Only | Print | Product List | Glossary On
Versions: 1 2 3 4 5 6 7 8 9 10 11 12 13 14 15 16 17 18 19 20 21 22 23 24
781
FTUS43 KDLH 240532
TAFHIB
TAF
KHIB 240532Z 2406/2506 VRB03KT 6SM BR SKC
      TEMPO 2406/2410 3/4SM BR SCT003
     FM241000 00000KT 3/4SM BR SCT003
     FM241400 13004KT P6SM SKC=

USA.gov is the U.S. government's official web portal to all federal, state and local government web resources and services.